Главная страница
METAR-TAF:

METAR-TAF

Аэропорты :

Уэйк, США

широта: 19-17N, долгота: 166-39E, высота над уровнем моря: 4 м

Текущие метеонаблюдения

Эта сводка был подготовлена 1 час и 10 минут назад, в 13:55 UTC
Ветер 10 Узел от северо-восточный
Температура 28°C
Влажность 79%
Давление 1014 hPa
Видимость: 16.1 км
небольшая облачность на высоте 1800 фута
небольшая облачность на высоте 2700 фута
Отдельные облака на высоте 4800 фута
Отдельные облака на высоте 7500 фута

METAR: PWAK 221355Z AUTO 05010KT 10SM FEW018 FEW027 SCT048 SCT075 28/24 A2993 RMK AO2 RAB31E46 SLP138 P0000 T02750237

Время: 03:05 (15:05 UTC)

Прогноз

Эта сводка был подготовлена 1 час и 5 минут назад, в 14:00 UTC
Прогноз действительный с 22-го 14 UTC до 23-го 20 UTC
Ветер 15 Узел от восточно-северо-восточный
Видимость 10 км и более
Отдельные облака на высоте 3000 фута

TAF: PWAK 221400Z 2214/2320 06015KT 9999 SCT030 QNH2988INS TX31/2303Z TN28/2217Z

Метеонаблюдения и прогнозы для более 4000 аэропортов (сводки METAR и TAF).

Имеющиеся станции представлены на карте желтыми и красными точками.

Чтобы увидеть название станции, наведите на нее мышь.

Затем щелкните, чтобы увидеть метеонаблюдения и метеопрогнозы.

Управление картой: чтобы увеличить масштаб, щелкните зеленые кнопки с черным крестиком; чтобы уменьшить масштаб, щелкните зеленую кнопку с тире; для просмотра соседних карт щелкайте зеленые стрелки.


METAR-TAF: